sensor_id;sensor_type;location;lat;lon;timestamp;pressure;altitude;pressure_sealevel;temperature;humidity
12879;BME280;20617;49.476;10.986;2023-03-16T00:01:05;98810.63;;;1.79;100.00
12879;BME280;20617;49.476;10.986;2023-03-16T00:03:10;98806.34;;;1.80;100.00
12879;BME280;20617;49.476;10.986;2023-03-16T00:05:20;98814.91;;;1.79;100.00
12879;BME280;20617;49.476;10.986;2023-03-16T00:07:29;98809.75;;;1.77;100.00
12879;BME280;20617;49.476;10.986;2023-03-16T00:09:35;98812.34;;;1.76;100.00
12879;BME280;20617;49.476;10.986;2023-03-16T00:11:42;98814.88;;;1.77;100.00
12879;BME280;20617;49.476;10.986;2023-03-16T00:13:47;98819.19;;;1.78;100.00
12879;BME280;20617;49.476;10.986;2023-03-16T00:15:53;98814.06;;;1.78;100.00
12879;BME280;20617;49.476;10.986;2023-03-16T00:17:58;98819.16;;;1.74;100.00
12879;BME280;20617;49.476;10.986;2023-03-16T00:20:03;98813.19;;;1.70;100.00
12879;BME280;20617;49.476;10.986;2023-03-16T00:22:10;98811.47;;;1.72;100.00
12879;BME280;20617;49.476;10.986;2023-03-16T00:24:18;98809.75;;;1.74;100.00
12879;BME280;20617;49.476;10.986;2023-03-16T00:26:25;98814.91;;;1.73;100.00
12879;BME280;20617;49.476;10.986;2023-03-16T00:28:31;98820.03;;;1.73;100.00
12879;BME280;20617;49.476;10.986;2023-03-16T00:30:36;98809.75;;;1.73;100.00
12879;BME280;20617;49.476;10.986;2023-03-16T00:32:41;98812.34;;;1.73;100.00
12879;BME280;20617;49.476;10.986;2023-03-16T00:34:46;98812.31;;;1.74;100.00
12879;BME280;20617;49.476;10.986;2023-03-16T00:36:52;98815.75;;;1.75;100.00
12879;BME280;20617;49.476;10.986;2023-03-16T00:38:57;98814.03;;;1.74;100.00
12879;BME280;20617;49.476;10.986;2023-03-16T00:41:06;98814.88;;;1.64;100.00
12879;BME280;20617;49.476;10.986;2023-03-16T00:43:12;98818.28;;;1.55;100.00
12879;BME280;20617;49.476;10.986;2023-03-16T00:45:19;98819.13;;;1.52;100.00
12879;BME280;20617;49.476;10.986;2023-03-16T00:47:26;98824.25;;;1.52;100.00
12879;BME280;20617;49.476;10.986;2023-03-16T00:49:31;98824.25;;;1.52;100.00
12879;BME280;20617;49.476;10.986;2023-03-16T00:51:36;98826.81;;;1.49;100.00
12879;BME280;20617;49.476;10.986;2023-03-16T00:53:42;98817.38;;;1.48;100.00
12879;BME280;20617;49.476;10.986;2023-03-16T00:55:47;98815.69;;;1.52;100.00
12879;BME280;20617;49.476;10.986;2023-03-16T00:57:56;98815.72;;;1.55;100.00
12879;BME280;20617;49.476;10.986;2023-03-16T01:00:07;98808.84;;;1.57;100.00
12879;BME280;20617;49.476;10.986;2023-03-16T01:02:18;98807.97;;;1.50;100.00
12879;BME280;20617;49.476;10.986;2023-03-16T01:04:24;98805.44;;;1.49;100.00
12879;BME280;20617;49.476;10.986;2023-03-16T01:06:30;98802.00;;;1.50;100.00
12879;BME280;20617;49.476;10.986;2023-03-16T01:08:38;98802.00;;;1.44;100.00
12879;BME280;20617;49.476;10.986;2023-03-16T01:10:43;98801.09;;;1.34;100.00
12879;BME280;20617;49.476;10.986;2023-03-16T01:12:48;98802.78;;;1.29;100.00
12879;BME280;20617;49.476;10.986;2023-03-16T01:14:59;98804.50;;;1.31;100.00
12879;BME280;20617;49.476;10.986;2023-03-16T01:17:05;98804.50;;;1.31;100.00
12879;BME280;20617;49.476;10.986;2023-03-16T01:19:14;98807.94;;;1.35;100.00
12879;BME280;20617;49.476;10.986;2023-03-16T01:21:20;98802.81;;;1.36;100.00
12879;BME280;20617;49.476;10.986;2023-03-16T01:23:25;98804.53;;;1.38;100.00
12879;BME280;20617;49.476;10.986;2023-03-16T01:25:31;98803.69;;;1.40;100.00
12879;BME280;20617;49.476;10.986;2023-03-16T01:27:36;98798.56;;;1.43;100.00
12879;BME280;20617;49.476;10.986;2023-03-16T01:29:41;98791.72;;;1.44;100.00
12879;BME280;20617;49.476;10.986;2023-03-16T01:31:50;98800.25;;;1.38;100.00
12879;BME280;20617;49.476;10.986;2023-03-16T01:33:55;98810.50;;;1.35;100.00
12879;BME280;20617;49.476;10.986;2023-03-16T01:36:06;98812.19;;;1.27;100.00
12879;BME280;20617;49.476;10.986;2023-03-16T01:38:22;98807.06;;;1.28;100.00
12879;BME280;20617;49.476;10.986;2023-03-16T01:40:27;98807.06;;;1.30;100.00
12879;BME280;20617;49.476;10.986;2023-03-16T01:42:32;98813.06;;;1.29;100.00
12879;BME280;20617;49.476;10.986;2023-03-16T01:44:53;98806.22;;;1.31;100.00
12879;BME280;20617;49.476;10.986;2023-03-16T01:47:07;98803.66;;;1.32;100.00
12879;BME280;20617;49.476;10.986;2023-03-16T01:49:15;98801.94;;;1.36;100.00
12879;BME280;20617;49.476;10.986;2023-03-16T01:51:24;98801.97;;;1.38;100.00
12879;BME280;20617;49.476;10.986;2023-03-16T01:53:29;98800.25;;;1.41;100.00
12879;BME280;20617;49.476;10.986;2023-03-16T01:55:34;98790.84;;;1.42;100.00
12879;BME280;20617;49.476;10.986;2023-03-16T01:57:42;98797.72;;;1.43;100.00
12879;BME280;20617;49.476;10.986;2023-03-16T01:59:51;98797.72;;;1.43;100.00
12879;BME280;20617;49.476;10.986;2023-03-16T02:01:57;98797.72;;;1.43;100.00
12879;BME280;20617;49.476;10.986;2023-03-16T02:04:33;98795.97;;;1.39;100.00
12879;BME280;20617;49.476;10.986;2023-03-16T02:06:41;98795.97;;;1.35;100.00
12879;BME280;20617;49.476;10.986;2023-03-16T02:08:46;98795.97;;;1.34;100.00
12879;BME280;20617;49.476;10.986;2023-03-16T02:10:56;98784.00;;;1.31;100.00
12879;BME280;20617;49.476;10.986;2023-03-16T02:13:14;98783.97;;;1.27;100.00
12879;BME280;20617;49.476;10.986;2023-03-16T02:15:19;98778.84;;;1.24;100.00
12879;BME280;20617;49.476;10.986;2023-03-16T02:17:27;98771.09;;;1.19;100.00
12879;BME280;20617;49.476;10.986;2023-03-16T02:19:44;98789.09;;;1.21;100.00
12879;BME280;20617;49.476;10.986;2023-03-16T02:21:54;98790.78;;;1.22;100.00
12879;BME280;20617;49.476;10.986;2023-03-16T02:24:04;98795.91;;;1.22;100.00
12879;BME280;20617;49.476;10.986;2023-03-16T02:26:15;98790.78;;;1.22;100.00
12879;BME280;20617;49.476;10.986;2023-03-16T02:28:28;98796.78;;;1.21;100.00
12879;BME280;20617;49.476;10.986;2023-03-16T02:30:38;98795.00;;;1.10;100.00
12879;BME280;20617;49.476;10.986;2023-03-16T02:32:45;98794.16;;;1.05;100.00
12879;BME280;20617;49.476;10.986;2023-03-16T02:34:53;98800.13;;;1.03;100.00
12879;BME280;20617;49.476;10.986;2023-03-16T02:36:59;98794.13;;;1.02;100.00
12879;BME280;20617;49.476;10.986;2023-03-16T02:39:05;98796.69;;;1.04;100.00
12879;BME280;20617;49.476;10.986;2023-03-16T02:41:19;98794.97;;;1.01;100.00
12879;BME280;20617;49.476;10.986;2023-03-16T02:43:32;98794.97;;;1.00;100.00
12879;BME280;20617;49.476;10.986;2023-03-16T02:45:56;98794.94;;;0.92;100.00
12879;BME280;20617;49.476;10.986;2023-03-16T02:48:08;98792.34;;;0.89;100.00
12879;BME280;20617;49.476;10.986;2023-03-16T02:50:16;98788.94;;;0.88;100.00
12879;BME280;20617;49.476;10.986;2023-03-16T02:52:21;98790.59;;;0.79;100.00
12879;BME280;20617;49.476;10.986;2023-03-16T02:54:26;98778.59;;;0.67;100.00
12879;BME280;20617;49.476;10.986;2023-03-16T02:56:31;98788.84;;;0.67;100.00
12879;BME280;20617;49.476;10.986;2023-03-16T02:58:36;98789.63;;;0.63;100.00
12879;BME280;20617;49.476;10.986;2023-03-16T03:00:46;98790.47;;;0.60;100.00
12879;BME280;20617;49.476;10.986;2023-03-16T03:02:54;98793.06;;;0.63;100.00
12879;BME280;20617;49.476;10.986;2023-03-16T03:04:59;98797.34;;;0.64;100.00
12879;BME280;20617;49.476;10.986;2023-03-16T03:07:04;98790.53;;;0.71;100.00
12879;BME280;20617;49.476;10.986;2023-03-16T03:09:25;98786.31;;;0.76;100.00
12879;BME280;20617;49.476;10.986;2023-03-16T03:11:30;98783.75;;;0.78;100.00
12879;BME280;20617;49.476;10.986;2023-03-16T03:13:35;98777.78;;;0.80;100.00
12879;BME280;20617;49.476;10.986;2023-03-16T03:15:46;98770.94;;;0.73;100.00
12879;BME280;20617;49.476;10.986;2023-03-16T03:17:55;98775.16;;;0.73;100.00
12879;BME280;20617;49.476;10.986;2023-03-16T03:20:03;98773.47;;;0.72;100.00
12879;BME280;20617;49.476;10.986;2023-03-16T03:22:16;98783.75;;;0.76;100.00
12879;BME280;20617;49.476;10.986;2023-03-16T03:24:22;98782.94;;;0.82;100.00
12879;BME280;20617;49.476;10.986;2023-03-16T03:26:28;98786.31;;;0.81;100.00
12879;BME280;20617;49.476;10.986;2023-03-16T03:28:34;98779.47;;;0.81;100.00
12879;BME280;20617;49.476;10.986;2023-03-16T03:30:39;98782.06;;;0.81;100.00
12879;BME280;20617;49.476;10.986;2023-03-16T03:32:45;98787.19;;;0.80;100.00
12879;BME280;20617;49.476;10.986;2023-03-16T03:34:55;98780.34;;;0.80;100.00
12879;BME280;20617;49.476;10.986;2023-03-16T03:37:00;98793.19;;;0.82;100.00
12879;BME280;20617;49.476;10.986;2023-03-16T03:39:06;98799.16;;;0.82;100.00
12879;BME280;20617;49.476;10.986;2023-03-16T03:41:11;98791.47;;;0.84;100.00
12879;BME280;20617;49.476;10.986;2023-03-16T03:43:16;98786.34;;;0.82;100.00
12879;BME280;20617;49.476;10.986;2023-03-16T03:45:23;98786.34;;;0.79;100.00
12879;BME280;20617;49.476;10.986;2023-03-16T03:47:28;98790.56;;;0.74;100.00
12879;BME280;20617;49.476;10.986;2023-03-16T03:49:34;98798.22;;;0.71;100.00
12879;BME280;20617;49.476;10.986;2023-03-16T03:51:41;98795.66;;;0.73;100.00
12879;BME280;20617;49.476;10.986;2023-03-16T03:53:51;98797.38;;;0.71;100.00
12879;BME280;20617;49.476;10.986;2023-03-16T03:56:10;98788.81;;;0.68;100.00
12879;BME280;20617;49.476;10.986;2023-03-16T03:58:15;98788.81;;;0.68;100.00
12879;BME280;20617;49.476;10.986;2023-03-16T04:00:21;98787.13;;;0.69;100.00
12879;BME280;20617;49.476;10.986;2023-03-16T04:02:25;98784.56;;;0.72;100.00
12879;BME280;20617;49.476;10.986;2023-03-16T04:04:31;98778.53;;;0.62;100.00
12879;BME280;20617;49.476;10.986;2023-03-16T04:06:36;98774.22;;;0.55;100.00
12879;BME280;20617;49.476;10.986;2023-03-16T04:08:45;98781.91;;;0.54;100.00
12879;BME280;20617;49.476;10.986;2023-03-16T04:10:53;98787.88;;;0.54;100.00
12879;BME280;20617;49.476;10.986;2023-03-16T04:12:58;98786.16;;;0.53;100.00
12879;BME280;20617;49.476;10.986;2023-03-16T04:15:08;98771.63;;;0.52;100.00
12879;BME280;20617;49.476;10.986;2023-03-16T04:17:24;98776.72;;;0.49;100.00
12879;BME280;20617;49.476;10.986;2023-03-16T04:19:32;98764.75;;;0.43;100.00
12879;BME280;20617;49.476;10.986;2023-03-16T04:21:39;98771.59;;;0.41;100.00
12879;BME280;20617;49.476;10.986;2023-03-16T04:23:46;98761.34;;;0.43;100.00
12879;BME280;20617;49.476;10.986;2023-03-16T04:25:59;98759.63;;;0.42;100.00
12879;BME280;20617;49.476;10.986;2023-03-16T04:28:04;98758.78;;;0.41;100.00
12879;BME280;20617;49.476;10.986;2023-03-16T04:30:13;98749.38;;;0.43;100.00
12879;BME280;20617;49.476;10.986;2023-03-16T04:32:22;98757.97;;;0.47;100.00
12879;BME280;20617;49.476;10.986;2023-03-16T04:34:28;98759.69;;;0.50;100.00
12879;BME280;20617;49.476;10.986;2023-03-16T04:36:37;98755.41;;;0.50;100.00
12879;BME280;20617;49.476;10.986;2023-03-16T04:38:45;98752.81;;;0.45;100.00
12879;BME280;20617;49.476;10.986;2023-03-16T04:40:50;98747.69;;;0.44;100.00
12879;BME280;20617;49.476;10.986;2023-03-16T04:42:58;98750.28;;;0.47;100.00
12879;BME280;20617;49.476;10.986;2023-03-16T04:45:06;98751.09;;;0.46;100.00
12879;BME280;20617;49.476;10.986;2023-03-16T04:47:12;98750.25;;;0.45;100.00
12879;BME280;20617;49.476;10.986;2023-03-16T04:49:18;98745.97;;;0.46;100.00
12879;BME280;20617;49.476;10.986;2023-03-16T04:51:23;98747.69;;;0.44;100.00
12879;BME280;20617;49.476;10.986;2023-03-16T04:53:41;98750.25;;;0.45;100.00
12879;BME280;20617;49.476;10.986;2023-03-16T04:55:56;98750.25;;;0.41;100.00
12879;BME280;20617;49.476;10.986;2023-03-16T04:58:01;98750.25;;;0.41;100.00
12879;BME280;20617;49.476;10.986;2023-03-16T05:00:11;98752.81;;;0.44;100.00
12879;BME280;20617;49.476;10.986;2023-03-16T05:02:27;98746.84;;;0.45;100.00
12879;BME280;20617;49.476;10.986;2023-03-16T05:04:35;98754.53;;;0.47;100.00
12879;BME280;20617;49.476;10.986;2023-03-16T05:06:44;98747.72;;;0.47;100.00
12879;BME280;20617;49.476;10.986;2023-03-16T05:08:50;98745.97;;;0.46;100.00
12879;BME280;20617;49.476;10.986;2023-03-16T05:10:58;98743.38;;;0.40;100.00
12879;BME280;20617;49.476;10.986;2023-03-16T05:13:07;98746.78;;;0.36;100.00
12879;BME280;20617;49.476;10.986;2023-03-16T05:15:12;98743.38;;;0.37;100.00
12879;BME280;20617;49.476;10.986;2023-03-16T05:17:19;98739.94;;;0.35;100.00
12879;BME280;20617;49.476;10.986;2023-03-16T05:19:24;98743.34;;;0.34;100.00
12879;BME280;20617;49.476;10.986;2023-03-16T05:21:29;98740.78;;;0.29;100.00
12879;BME280;20617;49.476;10.986;2023-03-16T05:23:38;98739.06;;;0.30;100.00
12879;BME280;20617;49.476;10.986;2023-03-16T05:25:45;98739.06;;;0.31;100.00
12879;BME280;20617;49.476;10.986;2023-03-16T05:27:56;98739.91;;;0.30;100.00
12879;BME280;20617;49.476;10.986;2023-03-16T05:30:17;98727.94;;;0.26;100.00
12879;BME280;20617;49.476;10.986;2023-03-16T05:32:22;98730.50;;;0.28;100.00
12879;BME280;20617;49.476;10.986;2023-03-16T05:34:27;98729.69;;;0.30;100.00
12879;BME280;20617;49.476;10.986;2023-03-16T05:36:32;98731.41;;;0.34;100.00
12879;BME280;20617;49.476;10.986;2023-03-16T05:38:43;98728.88;;;0.36;100.00
12879;BME280;20617;49.476;10.986;2023-03-16T05:40:57;98726.25;;;0.31;100.00
12879;BME280;20617;49.476;10.986;2023-03-16T05:43:22;98727.09;;;0.27;100.00
12879;BME280;20617;49.476;10.986;2023-03-16T05:45:28;98732.19;;;0.24;100.00
12879;BME280;20617;49.476;10.986;2023-03-16T05:47:42;98728.78;;;0.25;100.00
12879;BME280;20617;49.476;10.986;2023-03-16T05:49:48;98738.16;;;0.21;100.00
12879;BME280;20617;49.476;10.986;2023-03-16T05:52:03;98733.00;;;0.17;100.00
12879;BME280;20617;49.476;10.986;2023-03-16T05:54:09;98736.41;;;0.16;100.00
12879;BME280;20617;49.476;10.986;2023-03-16T05:56:20;98741.53;;;0.17;100.00
12879;BME280;20617;49.476;10.986;2023-03-16T05:58:29;98732.97;;;0.14;100.00
12879;BME280;20617;49.476;10.986;2023-03-16T06:00:35;98737.28;;;0.18;100.00
12879;BME280;20617;49.476;10.986;2023-03-16T06:02:52;98735.56;;;0.17;100.00
12879;BME280;20617;49.476;10.986;2023-03-16T06:05:01;98739.81;;;0.16;100.00
12879;BME280;20617;49.476;10.986;2023-03-16T06:07:07;98738.13;;;0.18;100.00
12879;BME280;20617;49.476;10.986;2023-03-16T06:09:12;98736.47;;;0.24;100.00
12879;BME280;20617;49.476;10.986;2023-03-16T06:11:17;98731.34;;;0.25;100.00
12879;BME280;20617;49.476;10.986;2023-03-16T06:13:22;98733.03;;;0.26;100.00
12879;BME280;20617;49.476;10.986;2023-03-16T06:15:29;98726.22;;;0.25;100.00
12879;BME280;20617;49.476;10.986;2023-03-16T06:17:37;98740.69;;;0.18;100.00
12879;BME280;20617;49.476;10.986;2023-03-16T06:19:42;98746.72;;;0.24;100.00
12879;BME280;20617;49.476;10.986;2023-03-16T06:21:47;98744.16;;;0.28;100.00
12879;BME280;20617;49.476;10.986;2023-03-16T06:23:52;98745.03;;;0.30;100.00
12879;BME280;20617;49.476;10.986;2023-03-16T06:25:58;98745.06;;;0.33;100.00
12879;BME280;20617;49.476;10.986;2023-03-16T06:28:06;98753.63;;;0.40;100.00
12879;BME280;20617;49.476;10.986;2023-03-16T06:30:12;98753.66;;;0.43;100.00
12879;BME280;20617;49.476;10.986;2023-03-16T06:32:20;98757.91;;;0.42;100.00
12879;BME280;20617;49.476;10.986;2023-03-16T06:34:25;98745.97;;;0.41;100.00
12879;BME280;20617;49.476;10.986;2023-03-16T06:36:31;98745.13;;;0.42;100.00
12879;BME280;20617;49.476;10.986;2023-03-16T06:38:37;98757.09;;;0.48;100.00
12879;BME280;20617;49.476;10.986;2023-03-16T06:41:02;98759.72;;;0.56;100.00
12879;BME280;20617;49.476;10.986;2023-03-16T06:43:08;98760.59;;;0.61;100.00
12879;BME280;20617;49.476;10.986;2023-03-16T06:45:14;98760.59;;;0.64;100.00
12879;BME280;20617;49.476;10.986;2023-03-16T06:47:21;98761.47;;;0.63;100.00
12879;BME280;20617;49.476;10.986;2023-03-16T06:49:26;98753.78;;;0.61;100.00
12879;BME280;20617;49.476;10.986;2023-03-16T06:51:31;98754.59;;;0.60;100.00
12879;BME280;20617;49.476;10.986;2023-03-16T06:53:36;98754.63;;;0.59;100.00
12879;BME280;20617;49.476;10.986;2023-03-16T06:55:42;98749.44;;;0.51;100.00
12879;BME280;20617;49.476;10.986;2023-03-16T06:57:47;98750.28;;;0.49;100.00
12879;BME280;20617;49.476;10.986;2023-03-16T06:59:52;98753.72;;;0.54;100.00
12879;BME280;20617;49.476;10.986;2023-03-16T07:01:57;98753.78;;;0.61;100.00
12879;BME280;20617;49.476;10.986;2023-03-16T07:04:05;98759.78;;;0.65;100.00
12879;BME280;20617;49.476;10.986;2023-03-16T07:06:10;98757.22;;;0.65;100.00
12879;BME280;20617;49.476;10.986;2023-03-16T07:08:16;98768.28;;;0.64;100.00
12879;BME280;20617;49.476;10.986;2023-03-16T07:10:21;98762.31;;;0.63;100.00
12879;BME280;20617;49.476;10.986;2023-03-16T07:12:26;98760.59;;;0.64;100.00
12879;BME280;20617;49.476;10.986;2023-03-16T07:14:30;98772.59;;;0.68;100.00
12879;BME280;20617;49.476;10.986;2023-03-16T07:16:35;98770.09;;;0.76;100.00
12879;BME280;20617;49.476;10.986;2023-03-16T07:18:44;98767.53;;;0.83;100.00
12879;BME280;20617;49.476;10.986;2023-03-16T07:20:54;98765.03;;;0.94;100.00
12879;BME280;20617;49.476;10.986;2023-03-16T07:23:00;98759.09;;;1.00;100.00
12879;BME280;20617;49.476;10.986;2023-03-16T07:25:07;98759.91;;;0.99;100.00
12879;BME280;20617;49.476;10.986;2023-03-16T07:27:16;98759.09;;;1.03;100.00
12879;BME280;20617;49.476;10.986;2023-03-16T07:29:22;98764.28;;;1.13;100.00
12879;BME280;20617;49.476;10.986;2023-03-16T07:31:27;98765.16;;;1.23;100.00
12879;BME280;20617;49.476;10.986;2023-03-16T07:33:35;98760.91;;;1.33;100.00
12879;BME280;20617;49.476;10.986;2023-03-16T07:35:44;98762.66;;;1.45;100.00
12879;BME280;20617;49.476;10.986;2023-03-16T07:37:51;98760.09;;;1.54;100.00
12879;BME280;20617;49.476;10.986;2023-03-16T07:40:01;98756.69;;;1.56;100.00
12879;BME280;20617;49.476;10.986;2023-03-16T07:42:06;98758.41;;;1.57;100.00
12879;BME280;20617;49.476;10.986;2023-03-16T07:44:33;98757.59;;;1.69;100.00
12879;BME280;20617;49.476;10.986;2023-03-16T07:46:38;98757.56;;;1.74;100.00
12879;BME280;20617;49.476;10.986;2023-03-16T07:48:43;98761.84;;;1.79;100.00
12879;BME280;20617;49.476;10.986;2023-03-16T07:50:49;98751.59;;;1.84;100.00
12879;BME280;20617;49.476;10.986;2023-03-16T07:52:58;98751.59;;;1.90;100.00
12879;BME280;20617;49.476;10.986;2023-03-16T07:55:04;98749.88;;;1.94;100.00
12879;BME280;20617;49.476;10.986;2023-03-16T07:57:09;98743.91;;;2.02;100.00
12879;BME280;20617;49.476;10.986;2023-03-16T07:59:16;98753.31;;;2.14;100.00
12879;BME280;20617;49.476;10.986;2023-03-16T08:01:22;98749.03;;;2.27;100.00
12879;BME280;20617;49.476;10.986;2023-03-16T08:03:27;98745.59;;;2.37;100.00
12879;BME280;20617;49.476;10.986;2023-03-16T08:05:33;98747.28;;;2.41;100.00
12879;BME280;20617;49.476;10.986;2023-03-16T08:07:44;98751.56;;;2.48;100.00
12879;BME280;20617;49.476;10.986;2023-03-16T08:09:58;98742.97;;;2.60;100.00
12879;BME280;20617;49.476;10.986;2023-03-16T08:12:14;98733.50;;;2.70;100.00
12879;BME280;20617;49.476;10.986;2023-03-16T08:14:19;98737.78;;;2.80;100.00
12879;BME280;20617;49.476;10.986;2023-03-16T08:16:44;98745.44;;;2.92;100.00
12879;BME280;20617;49.476;10.986;2023-03-16T08:18:49;98740.25;;;3.05;100.00
12879;BME280;20617;49.476;10.986;2023-03-16T08:20:56;98741.94;;;3.12;100.00
12879;BME280;20617;49.476;10.986;2023-03-16T08:23:01;98729.91;;;3.23;100.00
12879;BME280;20617;49.476;10.986;2023-03-16T08:25:15;98723.78;;;3.39;100.00
12879;BME280;20617;49.476;10.986;2023-03-16T08:27:33;98731.38;;;3.61;100.00
12879;BME280;20617;49.476;10.986;2023-03-16T08:29:40;98726.03;;;3.89;100.00
12879;BME280;20617;49.476;10.986;2023-03-16T08:31:49;98714.69;;;4.11;100.00
12879;BME280;20617;49.476;10.986;2023-03-16T08:34:02;98718.81;;;4.30;100.00
12879;BME280;20617;49.476;10.986;2023-03-16T08:36:14;98719.38;;;4.60;100.00
12879;BME280;20617;49.476;10.986;2023-03-16T08:38:22;98705.50;;;4.72;100.00
12879;BME280;20617;49.476;10.986;2023-03-16T08:40:31;98695.63;;;5.03;100.00
12879;BME280;20617;49.476;10.986;2023-03-16T08:42:36;98693.31;;;5.48;100.00
12879;BME280;20617;49.476;10.986;2023-03-16T08:44:43;98692.72;;;5.88;100.00
12879;BME280;20617;49.476;10.986;2023-03-16T08:46:48;98684.66;;;6.08;100.00
12879;BME280;20617;49.476;10.986;2023-03-16T08:48:55;98683.03;;;6.02;100.00
12879;BME280;20617;49.476;10.986;2023-03-16T08:51:00;98688.31;;;5.93;100.00
12879;BME280;20617;49.476;10.986;2023-03-16T08:53:06;98694.56;;;5.80;100.00
12879;BME280;20617;49.476;10.986;2023-03-16T08:55:11;98689.63;;;5.64;100.00
12879;BME280;20617;49.476;10.986;2023-03-16T08:57:18;98692.59;;;5.38;100.00
12879;BME280;20617;49.476;10.986;2023-03-16T08:59:24;98691.69;;;5.41;100.00
12879;BME280;20617;49.476;10.986;2023-03-16T09:01:31;98695.19;;;5.37;100.00
12879;BME280;20617;49.476;10.986;2023-03-16T09:03:36;98694.44;;;5.29;100.00
12879;BME280;20617;49.476;10.986;2023-03-16T09:05:41;98700.63;;;5.18;100.00
12879;BME280;20617;49.476;10.986;2023-03-16T09:07:46;98698.94;;;5.14;100.00
12879;BME280;20617;49.476;10.986;2023-03-16T09:09:51;98698.09;;;5.14;100.00
12879;BME280;20617;49.476;10.986;2023-03-16T09:11:55;98697.25;;;5.13;100.00
12879;BME280;20617;49.476;10.986;2023-03-16T09:14:03;98691.09;;;5.24;100.00
12879;BME280;20617;49.476;10.986;2023-03-16T09:16:09;98687.53;;;5.29;100.00
12879;BME280;20617;49.476;10.986;2023-03-16T09:18:14;98688.50;;;5.22;100.00
12879;BME280;20617;49.476;10.986;2023-03-16T09:20:20;98691.03;;;5.27;100.00
12879;BME280;20617;49.476;10.986;2023-03-16T09:22:30;98688.38;;;5.31;100.00
12879;BME280;20617;49.476;10.986;2023-03-16T09:24:35;98685.72;;;5.39;100.00
12879;BME280;20617;49.476;10.986;2023-03-16T09:26:39;98686.41;;;5.49;100.00
12879;BME280;20617;49.476;10.986;2023-03-16T09:28:44;98676.88;;;5.52;100.00
12879;BME280;20617;49.476;10.986;2023-03-16T09:30:52;98680.25;;;5.57;100.00
12879;BME280;20617;49.476;10.986;2023-03-16T09:32:58;98681.00;;;5.65;100.00
12879;BME280;20617;49.476;10.986;2023-03-16T09:35:04;98681.81;;;5.69;100.00
12879;BME280;20617;49.476;10.986;2023-03-16T09:37:09;98686.13;;;5.68;100.00
12879;BME280;20617;49.476;10.986;2023-03-16T09:39:14;98682.63;;;5.71;100.00
12879;BME280;20617;49.476;10.986;2023-03-16T09:41:38;98679.91;;;5.79;100.00
12879;BME280;20617;49.476;10.986;2023-03-16T09:43:56;98682.38;;;5.88;100.00
12879;BME280;20617;49.476;10.986;2023-03-16T09:46:10;98681.34;;;5.98;100.00
12879;BME280;20617;49.476;10.986;2023-03-16T09:48:17;98682.94;;;6.08;100.00
12879;BME280;20617;49.476;10.986;2023-03-16T09:50:27;98678.44;;;6.20;100.00
12879;BME280;20617;49.476;10.986;2023-03-16T09:52:54;98675.63;;;6.30;100.00
12879;BME280;20617;49.476;10.986;2023-03-16T09:55:06;98676.47;;;6.31;100.00
12879;BME280;20617;49.476;10.986;2023-03-16T09:57:16;98674.66;;;6.38;100.00
12879;BME280;20617;49.476;10.986;2023-03-16T09:59:26;98673.69;;;6.43;100.00
12879;BME280;20617;49.476;10.986;2023-03-16T10:01:42;98672.53;;;6.58;100.00
12879;BME280;20617;49.476;10.986;2023-03-16T10:04:02;98674.16;;;6.62;100.00
12879;BME280;20617;49.476;10.986;2023-03-16T10:06:12;98671.44;;;6.70;100.00
12879;BME280;20617;49.476;10.986;2023-03-16T10:08:20;98658.44;;;6.73;100.00
12879;BME280;20617;49.476;10.986;2023-03-16T10:10:39;98656.63;;;6.78;100.00
12879;BME280;20617;49.476;10.986;2023-03-16T10:12:49;98652.34;;;6.75;100.00
12879;BME280;20617;49.476;10.986;2023-03-16T10:14:58;98647.97;;;6.77;100.00
12879;BME280;20617;49.476;10.986;2023-03-16T10:17:13;98647.78;;;6.88;100.00
12879;BME280;20617;49.476;10.986;2023-03-16T10:19:21;98642.47;;;6.94;100.00
12879;BME280;20617;49.476;10.986;2023-03-16T10:21:37;98645.72;;;7.04;100.00
12879;BME280;20617;49.476;10.986;2023-03-16T10:23:44;98649.81;;;7.14;100.00
12879;BME280;20617;49.476;10.986;2023-03-16T10:25:51;98636.09;;;7.11;100.00
12879;BME280;20617;49.476;10.986;2023-03-16T10:27:57;98631.72;;;7.13;100.00
12879;BME280;20617;49.476;10.986;2023-03-16T10:30:06;98633.50;;;7.11;100.00
12879;BME280;20617;49.476;10.986;2023-03-16T10:32:18;98628.09;;;7.21;100.00
12879;BME280;20617;49.476;10.986;2023-03-16T10:34:25;98626.34;;;7.22;100.00
12879;BME280;20617;49.476;10.986;2023-03-16T10:36:32;98632.38;;;7.22;100.00
12879;BME280;20617;49.476;10.986;2023-03-16T10:38:40;98621.13;;;7.23;100.00
12879;BME280;20617;49.476;10.986;2023-03-16T10:40:51;98631.19;;;7.36;100.00
12879;BME280;20617;49.476;10.986;2023-03-16T10:43:04;98621.78;;;7.33;100.00
12879;BME280;20617;49.476;10.986;2023-03-16T10:45:22;98614.78;;;7.35;100.00
12879;BME280;20617;49.476;10.986;2023-03-16T10:47:32;98608.69;;;7.39;100.00
12879;BME280;20617;49.476;10.986;2023-03-16T10:49:38;98613.63;;;7.48;100.00
12879;BME280;20617;49.476;10.986;2023-03-16T10:51:45;98607.31;;;7.60;100.00
12879;BME280;20617;49.476;10.986;2023-03-16T10:53:50;98608.06;;;7.64;100.00
12879;BME280;20617;49.476;10.986;2023-03-16T10:55:59;98610.66;;;7.64;99.79
12879;BME280;20617;49.476;10.986;2023-03-16T10:58:04;98610.59;;;7.67;100.00
12879;BME280;20617;49.476;10.986;2023-03-16T11:00:14;98598.28;;;7.75;97.91
12879;BME280;20617;49.476;10.986;2023-03-16T11:02:23;98602.28;;;7.88;94.21
12879;BME280;20617;49.476;10.986;2023-03-16T11:04:32;98601.34;;;7.91;90.58
12879;BME280;20617;49.476;10.986;2023-03-16T11:06:47;98588.19;;;7.99;93.79
12879;BME280;20617;49.476;10.986;2023-03-16T11:08:52;98587.94;;;8.08;94.76
12879;BME280;20617;49.476;10.986;2023-03-16T11:10:58;98603.72;;;8.00;94.95